Time;durP1;ratioP1;P1;durP2;ratioP2;P2;SDS_P1;SDS_P2;PMS_P1;PMS_P2;Temp;Humidity;BMP_temperature;BMP_pressure;BME280_temperature;BME280_humidity;BME280_pressure;Samples;Min_cycle;Max_cycle;Signal;HPM_P1;HPM_P2
2022/09/30 00:00:26;;;;;;;12.13;10.93;;;;;;;10.94;100.00;94680.59;5032660;28;20202;-83
2022/09/30 00:02:52;;;;;;;14.47;11.93;;;;;;;10.88;100.00;94678.81;5032259;28;20202;-83
2022/09/30 00:05:19;;;;;;;13.17;11.87;;;;;;;10.84;100.00;94677.63;5032748;28;20198;-84
2022/09/30 00:07:45;;;;;;;12.63;11.43;;;;;;;10.73;100.00;94677.25;5033447;28;20208;-83
2022/09/30 00:10:13;;;;;;;14.30;12.80;;;;;;;10.68;100.00;94677.06;5033179;28;20201;-84
2022/09/30 00:12:40;;;;;;;13.77;12.20;;;;;;;10.65;100.00;94679.22;5031808;28;20198;-84
2022/09/30 00:15:09;;;;;;;15.67;13.03;;;;;;;10.63;100.00;94681.22;5026498;28;20237;-83
2022/09/30 00:17:35;;;;;;;14.03;12.73;;;;;;;10.62;100.00;94680.41;5032680;28;20199;-84
2022/09/30 00:20:02;;;;;;;14.87;13.37;;;;;;;10.61;100.00;94683.97;5031628;28;20202;-83
2022/09/30 00:22:28;;;;;;;13.30;12.00;;;;;;;10.68;100.00;94695.06;5032561;28;20565;-83
2022/09/30 00:24:55;;;;;;;13.90;12.60;;;;;;;10.70;100.00;94692.31;5032666;28;20214;-84
2022/09/30 00:27:21;;;;;;;14.30;12.90;;;;;;;10.73;100.00;94692.72;5031684;28;20210;-84
2022/09/30 00:29:48;;;;;;;14.63;13.13;;;;;;;10.76;100.00;94688.94;5018628;28;20195;-83
2022/09/30 00:32:15;;;;;;;14.53;13.13;;;;;;;10.80;100.00;94691.88;5032597;28;20191;-83
2022/09/30 00:34:42;;;;;;;13.90;12.53;;;;;;;10.79;100.00;94683.38;5031565;28;20302;-84
2022/09/30 00:37:10;;;;;;;16.67;13.57;;;;;;;10.74;100.00;94690.94;5030830;28;20199;-84
2022/09/30 00:39:37;;;;;;;15.93;14.27;;;;;;;10.74;100.00;94683.19;5031734;28;20218;-83
2022/09/30 00:42:07;;;;;;;15.17;12.70;;;;;;;10.69;100.00;94680.44;5031327;28;20206;-83
2022/09/30 00:44:49;;;;;;;14.77;13.37;;;;;;;10.66;100.00;94684.19;5030428;28;20221;-83
2022/09/30 00:47:34;;;;;;;14.03;12.60;;;;;;;10.70;100.00;94680.22;5027387;28;20194;-83
2022/09/30 00:50:05;;;;;;;13.20;11.90;;;;;;;10.70;100.00;94677.66;5031040;28;20194;-84
2022/09/30 00:52:32;;;;;;;12.97;11.67;;;;;;;10.78;100.00;94678.41;5030821;28;20198;-83
2022/09/30 00:55:01;;;;;;;13.70;12.40;;;;;;;10.78;100.00;94681.78;5031714;28;20233;-83
2022/09/30 00:57:29;;;;;;;12.40;11.20;;;;;;;10.80;100.00;94691.88;5032301;28;20202;-83
2022/09/30 00:59:55;;;;;;;13.70;10.60;;;;;;;10.83;100.00;94688.91;5031720;28;20225;-83
2022/09/30 01:02:22;;;;;;;11.53;10.53;;;;;;;10.87;99.41;94695.25;5031911;28;20744;-83
2022/09/30 01:04:50;;;;;;;11.83;10.63;;;;;;;10.95;99.07;94705.38;5031524;28;20214;-83
2022/09/30 01:07:16;;;;;;;10.93;9.83;;;;;;;10.97;98.41;94708.50;5030570;28;20194;-84
2022/09/30 01:09:44;;;;;;;10.83;9.83;;;;;;;11.00;98.27;94705.53;5031074;28;20213;-84
2022/09/30 01:12:14;;;;;;;11.20;10.20;;;;;;;11.03;97.51;94713.66;5024703;28;20198;-83
2022/09/30 01:14:42;;;;;;;12.30;11.00;;;;;;;10.97;98.27;94713.66;5030562;28;20226;-83
2022/09/30 01:17:13;;;;;;;12.07;10.97;;;;;;;10.85;99.37;94723.00;5030619;28;20198;-84
2022/09/30 01:20:02;;;;;;;12.30;11.10;;;;;;;10.70;100.00;94724.00;5030328;28;20581;-83
2022/09/30 01:22:40;;;;;;;11.67;10.47;;;;;;;10.72;100.00;94716.06;5027773;28;20202;-83
2022/09/30 01:25:50;;;;;;;11.33;10.23;;;;;;;10.71;100.00;94712.72;5031622;28;20329;-84
2022/09/30 01:28:46;;;;;;;12.07;9.90;;;;;;;10.68;100.00;94722.59;5007114;28;20194;-84
2022/09/30 01:31:26;;;;;;;11.20;10.20;;;;;;;10.66;100.00;94724.59;5034039;28;20205;-84
2022/09/30 01:34:03;;;;;;;10.90;9.90;;;;;;;10.64;100.00;94732.50;5033394;28;20222;-84
2022/09/30 01:36:44;;;;;;;11.07;9.97;;;;;;;10.57;100.00;94726.56;5033270;28;20213;-84
2022/09/30 01:39:25;;;;;;;10.47;9.47;;;;;;;10.62;100.00;94731.91;5033105;28;20198;-84
2022/09/30 01:41:57;;;;;;;10.17;9.17;;;;;;;10.72;100.00;94739.25;5033758;28;20206;-84
2022/09/30 01:44:36;;;;;;;10.90;9.70;;;;;;;10.75;99.50;94725.19;5033264;28;20210;-84
2022/09/30 01:47:12;;;;;;;9.70;8.80;;;;;;;10.75;98.76;94740.63;5025673;28;20186;-84
2022/09/30 01:49:42;;;;;;;8.83;7.80;;;;;;;10.80;98.13;94743.38;5032575;28;20197;-84
2022/09/30 01:52:13;;;;;;;9.23;8.33;;;;;;;10.83;97.23;94745.56;5036589;28;20191;-84
2022/09/30 01:54:47;;;;;;;8.17;7.47;;;;;;;10.84;96.69;94747.16;5034783;28;20217;-83
2022/09/30 01:57:20;;;;;;;8.77;7.67;;;;;;;10.82;96.91;94737.06;5031758;28;20233;-83
2022/09/30 01:59:51;;;;;;;8.20;7.40;;;;;;;10.88;96.74;94748.34;5036729;28;20198;-84
2022/09/30 02:02:24;;;;;;;7.97;7.17;;;;;;;10.89;96.23;94743.00;5031912;28;20589;-84
2022/09/30 02:04:56;;;;;;;7.67;6.97;;;;;;;10.90;95.96;94738.66;5036816;28;20244;-83
2022/09/30 02:07:28;;;;;;;9.53;7.73;;;;;;;10.87;97.08;94746.75;5037387;28;20262;-84
2022/09/30 02:10:00;;;;;;;8.13;7.33;;;;;;;10.82;97.70;94742.19;5036746;28;20256;-84
2022/09/30 02:12:33;;;;;;;7.97;7.27;;;;;;;10.83;97.47;94743.78;5035434;28;20198;-84
2022/09/30 02:15:06;;;;;;;8.10;7.40;;;;;;;10.87;96.15;94736.47;5036392;28;20218;-85
2022/09/30 02:17:39;;;;;;;8.37;7.10;;;;;;;10.88;94.80;94731.13;5036498;28;20205;-84
2022/09/30 02:20:10;;;;;;;9.13;8.13;;;;;;;10.83;96.06;94733.50;5033010;28;20214;-83
2022/09/30 02:22:43;;;;;;;9.43;8.53;;;;;;;10.77;97.32;94734.31;5035166;28;20226;-82
2022/09/30 02:25:19;;;;;;;9.20;8.30;;;;;;;10.71;98.16;94723.00;5036574;28;20194;-84
2022/09/30 02:27:50;;;;;;;9.53;7.80;;;;;;;10.62;99.46;94725.97;5036468;28;20256;-83
2022/09/30 02:30:18;;;;;;;9.23;8.33;;;;;;;10.49;100.00;94723.38;5037428;28;20241;-83
2022/09/30 02:32:50;;;;;;;9.43;8.53;;;;;;;10.49;100.00;94718.25;5036723;28;20199;-84
2022/09/30 02:35:23;;;;;;;9.17;8.37;;;;;;;10.54;100.00;94721.03;5031556;28;20277;-84
2022/09/30 02:37:54;;;;;;;8.40;7.60;;;;;;;10.63;100.00;94719.81;5034959;28;20228;-83
2022/09/30 02:40:27;;;;;;;8.33;7.57;;;;;;;10.66;99.78;94722.81;5036274;28;20206;-85
2022/09/30 02:42:54;;;;;;;8.37;7.57;;;;;;;10.75;98.85;94725.19;5035719;28;20198;-84
2022/09/30 02:45:22;;;;;;;8.57;7.77;;;;;;;10.78;97.65;94730.72;5035146;28;20736;-84
2022/09/30 02:48:03;;;;;;;9.27;7.13;;;;;;;10.82;97.25;94737.06;5036332;28;20212;-84
2022/09/30 02:50:33;;;;;;;8.17;7.37;;;;;;;10.84;96.87;94744.59;5031713;28;20225;-83
2022/09/30 02:53:14;;;;;;;8.27;7.47;;;;;;;10.82;96.89;94739.63;5032285;28;20210;-83
2022/09/30 02:55:49;;;;;;;8.43;7.50;;;;;;;10.81;97.08;94748.34;5036216;28;20228;-83
2022/09/30 02:58:18;;;;;;;11.10;7.33;;;;;;;10.79;97.34;94747.75;5030697;28;20197;-84
2022/09/30 03:00:45;;;;;;;7.53;6.80;;;;;;;10.76;97.37;94747.38;5034833;28;20190;-83
2022/09/30 03:03:19;;;;;;;8.57;7.60;;;;;;;10.70;97.82;94751.53;5034475;28;20234;-84
2022/09/30 03:05:46;;;;;;;8.00;7.30;;;;;;;10.68;97.72;94750.91;5035772;28;20192;-84
2022/09/30 03:08:12;;;;;;;8.50;7.70;;;;;;;10.72;96.82;94760.63;5036508;28;20202;-84
2022/09/30 03:10:40;;;;;;;8.63;7.83;;;;;;;10.73;96.71;94754.50;5035360;28;20233;-83
2022/09/30 03:13:29;;;;;;;8.70;7.80;;;;;;;10.74;96.74;94757.88;5035803;28;20493;-84
2022/09/30 03:16:06;;;;;;;8.47;7.77;;;;;;;10.71;96.83;94758.25;5004636;28;20218;-85
2022/09/30 03:18:57;;;;;;;7.77;7.07;;;;;;;10.77;96.34;94757.47;5035250;28;20725;-84
2022/09/30 03:21:37;;;;;;;8.10;7.30;;;;;;;10.77;96.12;94760.03;5029646;28;20202;-84
2022/09/30 03:24:23;;;;;;;8.10;7.30;;;;;;;10.78;96.22;94768.53;5035568;28;20222;-84
2022/09/30 03:27:00;;;;;;;7.40;6.70;;;;;;;10.81;96.11;94776.66;5035282;28;20190;-84
2022/09/30 03:29:36;;;;;;;7.63;6.93;;;;;;;10.82;95.66;94775.69;5030364;28;20201;-84
2022/09/30 03:32:14;;;;;;;8.70;7.80;;;;;;;10.74;96.43;94783.59;5034582;28;20205;-83
2022/09/30 03:34:58;;;;;;;8.17;7.03;;;;;;;10.71;97.10;94787.38;5034784;28;20225;-84
2022/09/30 03:37:32;;;;;;;7.53;6.93;;;;;;;10.72;96.91;94794.09;5030353;28;20214;-85
2022/09/30 03:40:04;;;;;;;7.10;6.50;;;;;;;10.73;96.73;94800.03;5034406;28;20261;-84
2022/09/30 03:42:37;;;;;;;7.40;6.70;;;;;;;10.77;96.45;94803.03;5034443;28;20285;-84
2022/09/30 03:45:08;;;;;;;7.23;6.53;;;;;;;10.79;95.72;94804.38;5034018;28;20191;-84
2022/09/30 03:47:40;;;;;;;7.00;6.30;;;;;;;10.83;95.29;94799.63;5033910;28;20202;-84
2022/09/30 03:50:10;;;;;;;7.40;6.80;;;;;;;10.84;94.83;94796.88;5030991;28;20281;-84
2022/09/30 03:52:37;;;;;;;7.67;6.97;;;;;;;10.84;94.28;94793.50;5035678;28;20198;-85
2022/09/30 03:55:06;;;;;;;7.57;6.77;;;;;;;10.83;94.48;94790.13;5034255;28;20202;-84
2022/09/30 03:57:33;;;;;;;6.93;6.33;;;;;;;10.83;94.02;94791.91;5033219;28;20244;-84
2022/09/30 04:00:00;;;;;;;7.30;6.60;;;;;;;10.83;94.01;94797.84;5032305;28;20237;-85
2022/09/30 04:02:27;;;;;;;7.87;7.17;;;;;;;10.83;93.86;94805.59;5032718;28;20194;-84
2022/09/30 04:04:53;;;;;;;8.10;7.30;;;;;;;10.75;93.56;94799.84;5031726;28;20725;-84
2022/09/30 04:07:21;;;;;;;8.10;7.40;;;;;;;10.67;94.84;94811.13;5032044;28;20201;-84
2022/09/30 04:09:48;;;;;;;8.60;7.70;;;;;;;10.62;95.24;94813.47;5032251;28;20206;-84
2022/09/30 04:12:14;;;;;;;8.00;7.30;;;;;;;10.60;94.78;94805.94;5033108;28;20213;-85
2022/09/30 04:14:43;;;;;;;7.67;6.97;;;;;;;10.58;95.04;94809.72;5033408;28;20705;-84
2022/09/30 04:17:10;;;;;;;8.00;7.30;;;;;;;10.61;94.51;94815.25;5030964;28;20297;-84
2022/09/30 04:19:38;;;;;;;8.37;7.57;;;;;;;10.62;94.49;94822.00;5032304;28;20198;-84
2022/09/30 04:22:05;;;;;;;8.47;7.67;;;;;;;10.63;94.57;94823.56;5030918;28;20213;-84
2022/09/30 04:24:33;;;;;;;7.90;7.20;;;;;;;10.64;94.38;94819.22;5032017;28;20365;-84
2022/09/30 04:27:00;;;;;;;7.50;6.77;;;;;;;10.52;95.46;94821.59;5031473;28;20190;-84
2022/09/30 04:29:27;;;;;;;7.80;7.10;;;;;;;10.50;95.23;94822.75;5031856;28;20205;-83
2022/09/30 04:31:53;;;;;;;7.53;6.80;;;;;;;10.47;95.85;94823.16;5031054;28;20197;-86
2022/09/30 04:34:20;;;;;;;8.03;7.33;;;;;;;10.52;95.65;94824.16;5029213;28;20295;-86
2022/09/30 04:36:47;;;;;;;7.57;6.73;;;;;;;10.54;95.24;94831.69;5024638;28;20222;-84
2022/09/30 04:39:13;;;;;;;8.27;7.47;;;;;;;10.51;95.22;94829.50;5033360;28;20205;-86
2022/09/30 04:41:42;;;;;;;7.80;7.10;;;;;;;10.56;95.16;94840.00;5029127;28;20217;-86
2022/09/30 04:44:09;;;;;;;8.50;7.70;;;;;;;10.59;94.84;94837.03;5034346;28;20283;-83
2022/09/30 04:46:39;;;;;;;9.17;6.80;;;;;;;10.62;94.63;94841.78;5031948;28;20824;-83
2022/09/30 04:49:06;;;;;;;7.77;7.00;;;;;;;10.63;94.11;94848.53;5033645;28;20202;-86
2022/09/30 04:51:37;;;;;;;8.27;7.47;;;;;;;10.57;93.96;94844.97;5026391;28;20203;-84
2022/09/30 04:54:04;;;;;;;7.67;6.83;;;;;;;10.45;93.72;94843.13;5021520;28;20214;-86
2022/09/30 04:56:30;;;;;;;8.97;7.60;;;;;;;10.36;93.98;94848.47;5027637;28;20218;-86
2022/09/30 04:58:58;;;;;;;7.27;6.57;;;;;;;10.37;94.71;94855.22;5029229;28;20214;-85
2022/09/30 05:01:25;;;;;;;8.20;7.40;;;;;;;10.40;94.19;94856.56;5038493;28;20202;-86
2022/09/30 05:03:51;;;;;;;7.73;6.97;;;;;;;10.37;94.28;94859.56;5044840;28;20229;-85
2022/09/30 05:06:19;;;;;;;9.73;7.33;;;;;;;10.28;93.66;94858.13;5037104;28;20202;-85
2022/09/30 05:08:46;;;;;;;8.53;7.63;;;;;;;10.05;95.07;94851.47;5031455;28;20716;-84
2022/09/30 05:11:16;;;;;;;9.43;8.30;;;;;;;9.95;95.54;94847.66;5032975;28;20209;-83
2022/09/30 05:13:43;;;;;;;8.80;7.63;;;;;;;9.94;96.63;94859.72;5033573;28;20237;-86
2022/09/30 05:16:11;;;;;;;8.70;7.87;;;;;;;10.02;96.36;94861.34;5043609;28;20232;-84
2022/09/30 05:18:39;;;;;;;8.33;7.53;;;;;;;10.12;95.39;94861.00;5022865;28;20206;-85
2022/09/30 05:21:06;;;;;;;8.67;7.77;;;;;;;10.05;96.37;94859.19;5031124;28;20231;-83
2022/09/30 05:23:33;;;;;;;9.57;8.60;;;;;;;10.08;95.99;94868.28;5039866;28;20229;-83
2022/09/30 05:26:00;;;;;;;11.70;8.70;;;;;;;10.11;95.91;94864.56;5036545;28;20418;-84
2022/09/30 05:28:30;;;;;;;9.37;8.47;;;;;;;10.12;95.61;94872.09;5038260;28;20205;-85
2022/09/30 05:30:58;;;;;;;9.73;8.47;;;;;;;10.13;95.68;94876.25;5034045;28;20262;-83
2022/09/30 05:33:28;;;;;;;9.30;8.40;;;;;;;10.05;95.57;94876.38;5034057;28;20222;-84
2022/09/30 05:35:56;;;;;;;10.53;9.53;;;;;;;9.94;96.81;94869.22;5024173;28;20194;-84
2022/09/30 05:38:22;;;;;;;10.70;9.70;;;;;;;9.85;98.43;94883.19;5016828;28;20812;-85
2022/09/30 05:40:48;;;;;;;11.17;10.07;;;;;;;9.83;99.03;94883.38;5023788;28;20214;-83
2022/09/30 05:43:15;;;;;;;11.53;10.33;;;;;;;9.89;98.93;94890.34;5028510;28;20222;-85
2022/09/30 05:45:41;;;;;;;11.83;10.50;;;;;;;9.91;100.00;94882.44;5032622;28;20440;-84
2022/09/30 05:48:08;;;;;;;10.40;9.40;;;;;;;9.90;100.00;94897.09;5034565;28;20578;-85
2022/09/30 05:50:36;;;;;;;10.50;9.40;;;;;;;9.94;100.00;94897.50;5032922;28;20591;-84
2022/09/30 05:53:02;;;;;;;9.70;8.80;;;;;;;9.99;99.98;94900.31;5032572;28;20721;-82
2022/09/30 05:55:30;;;;;;;8.63;7.83;;;;;;;10.12;99.71;94902.16;5022348;28;20302;-85
2022/09/30 05:57:56;;;;;;;9.20;8.30;;;;;;;10.22;98.54;94902.63;5029967;28;20731;-86
2022/09/30 06:00:23;;;;;;;10.90;8.47;;;;;;;10.32;98.93;94913.38;5040683;28;20209;-84
2022/09/30 06:02:52;;;;;;;9.87;8.87;;;;;;;10.38;97.15;94913.41;5038309;28;20341;-86
2022/09/30 06:05:18;;;;;;;9.20;8.30;;;;;;;10.46;96.28;94921.94;5028282;28;20209;-85
2022/09/30 06:07:46;;;;;;;9.87;8.90;;;;;;;10.40;97.18;94928.63;5031362;28;20197;-85
2022/09/30 06:10:13;;;;;;;8.93;8.03;;;;;;;10.46;97.01;94927.88;5031884;28;20208;-85
2022/09/30 06:12:39;;;;;;;9.27;8.37;;;;;;;10.43;97.55;94919.72;5028984;28;20201;-85
2022/09/30 06:15:07;;;;;;;10.63;9.57;;;;;;;10.48;98.07;94917.38;5040239;28;20714;-85
2022/09/30 06:17:33;;;;;;;21.03;18.87;;;;;;;10.63;96.79;94928.31;5044372;28;20247;-85
2022/09/30 06:20:01;;;;;;;30.13;25.83;;;;;;;10.67;97.05;94935.47;5030915;28;20232;-85
2022/09/30 06:22:28;;;;;;;19.30;15.90;;;;;;;10.83;96.01;94934.34;5043521;28;20209;-85
2022/09/30 06:24:55;;;;;;;14.20;12.77;;;;;;;10.96;95.29;94942.13;5040736;28;20477;-85
2022/09/30 06:27:22;;;;;;;10.83;9.73;;;;;;;11.02;95.10;94933.59;5052354;28;20293;-85
2022/09/30 06:29:49;;;;;;;12.70;10.17;;;;;;;11.07;94.86;94931.22;5041849;28;20202;-85
2022/09/30 06:32:16;;;;;;;10.63;9.53;;;;;;;11.23;94.33;94926.69;5031034;28;20202;-84
2022/09/30 06:34:44;;;;;;;12.07;10.20;;;;;;;11.30;91.10;94928.31;5033254;28;20222;-84
2022/09/30 06:37:14;;;;;;;12.00;10.80;;;;;;;11.29;91.07;94931.88;5034923;28;20218;-83
2022/09/30 06:39:41;;;;;;;12.27;10.97;;;;;;;11.35;90.87;94930.28;5036001;28;20290;-84
2022/09/30 06:42:10;;;;;;;12.83;11.43;;;;;;;11.43;90.36;94925.72;5037902;28;20213;-84
2022/09/30 06:44:36;;;;;;;14.27;11.53;;;;;;;11.55;90.68;94932.84;5035132;28;20253;-83
2022/09/30 06:47:03;;;;;;;12.93;11.20;;;;;;;11.75;89.15;94941.38;5035791;28;20217;-85
2022/09/30 06:49:30;;;;;;;10.83;9.73;;;;;;;12.12;88.71;94957.28;5047809;28;20661;-80
2022/09/30 06:51:59;;;;;;;12.50;11.30;;;;;;;12.40;86.78;94955.22;5049319;28;20269;-81
2022/09/30 06:54:27;;;;;;;10.27;9.07;;;;;;;12.84;85.85;94951.09;5033516;28;20288;-82
2022/09/30 06:56:54;;;;;;;12.60;11.40;;;;;;;13.04;81.61;94951.78;5033096;28;20233;-83
2022/09/30 06:59:22;;;;;;;11.23;10.13;;;;;;;12.93;80.88;94950.63;5034261;28;20202;-86
2022/09/30 07:01:48;;;;;;;12.93;11.63;;;;;;;12.72;82.30;94958.69;5032597;28;20713;-86
2022/09/30 07:04:16;;;;;;;12.70;10.90;;;;;;;12.55;83.37;94954.97;5032533;28;20605;-84
2022/09/30 07:06:43;;;;;;;10.73;9.67;;;;;;;12.57;82.32;94964.09;5033980;28;20842;-85
2022/09/30 07:09:12;;;;;;;10.90;9.90;;;;;;;12.44;82.64;94961.56;5038962;28;20201;-85
2022/09/30 07:11:39;;;;;;;12.30;11.03;;;;;;;12.41;82.57;94961.97;5052841;28;20572;-86
2022/09/30 07:14:07;;;;;;;11.27;10.17;;;;;;;12.27;84.69;94966.38;5039787;28;20230;-83
2022/09/30 07:16:35;;;;;;;13.20;10.80;;;;;;;12.16;85.78;94966.19;5034082;28;20230;-85
2022/09/30 07:19:02;;;;;;;10.30;9.30;;;;;;;12.17;85.94;94971.16;5033428;28;20206;-85
2022/09/30 07:21:30;;;;;;;10.33;9.33;;;;;;;12.20;86.65;94977.69;5034026;28;20206;-84
2022/09/30 07:23:59;;;;;;;10.23;9.23;;;;;;;12.28;84.19;94982.66;5033750;28;20237;-82
2022/09/30 07:26:27;;;;;;;9.67;8.73;;;;;;;12.36;83.79;94977.25;5031344;28;20241;-84
2022/09/30 07:28:54;;;;;;;8.60;7.80;;;;;;;12.39;83.22;94977.66;5033575;28;20588;-81
2022/09/30 07:31:23;;;;;;;11.03;6.97;;;;;;;12.50;82.04;94980.63;5033208;28;20202;-85
2022/09/30 07:33:51;;;;;;;7.20;6.50;;;;;;;12.60;81.18;94970.66;5032487;28;20214;-84
2022/09/30 07:36:21;;;;;;;6.50;5.90;;;;;;;12.67;79.81;94972.22;5032590;28;20609;-85
2022/09/30 07:38:50;;;;;;;5.67;5.17;;;;;;;12.83;79.96;94973.56;5026773;28;20734;-84
2022/09/30 07:41:20;;;;;;;8.30;5.83;;;;;;;12.85;79.16;94968.97;5029678;28;20237;-84
2022/09/30 07:43:49;;;;;;;9.43;6.30;;;;;;;12.80;79.07;94968.78;5032255;28;20218;-85
2022/09/30 07:46:19;;;;;;;7.87;6.77;;;;;;;12.64;78.83;94959.72;5033061;28;20190;-85
2022/09/30 07:48:49;;;;;;;7.20;6.50;;;;;;;12.65;80.41;94960.50;5032860;28;20247;-84
2022/09/30 07:51:19;;;;;;;6.63;5.97;;;;;;;12.58;82.59;94968.28;5032938;28;20226;-86
2022/09/30 07:53:48;;;;;;;6.93;6.23;;;;;;;12.58;82.47;94970.84;5033233;28;20222;-86
2022/09/30 07:56:15;;;;;;;6.73;6.03;;;;;;;12.49;79.39;94972.09;5033377;28;20198;-83
2022/09/30 07:58:42;;;;;;;5.87;5.37;;;;;;;12.47;79.15;94979.25;5026378;28;20213;-85
2022/09/30 08:01:10;;;;;;;5.30;4.80;;;;;;;12.43;78.29;94985.81;5033032;28;20194;-81
2022/09/30 08:03:38;;;;;;;5.37;4.90;;;;;;;12.49;78.79;94977.25;5031928;28;20221;-82
2022/09/30 08:06:07;;;;;;;5.50;5.00;;;;;;;12.69;79.18;94995.28;5032437;28;20629;-82
2022/09/30 08:08:35;;;;;;;6.70;5.00;;;;;;;12.90;78.33;94994.97;5031358;28;20202;-81
2022/09/30 08:11:02;;;;;;;5.73;5.23;;;;;;;12.91;77.88;95003.50;5032666;28;20202;-83
2022/09/30 08:13:28;;;;;;;6.50;5.63;;;;;;;12.87;77.48;95004.94;5032935;28;20237;-84
2022/09/30 08:15:55;;;;;;;6.80;5.90;;;;;;;12.88;77.13;94997.00;5028584;28;20191;-83
2022/09/30 08:18:24;;;;;;;6.50;5.87;;;;;;;12.78;77.86;94997.41;5027921;28;20225;-84
2022/09/30 08:20:51;;;;;;;6.77;6.10;;;;;;;13.11;77.41;95009.38;5032164;28;20198;-84
2022/09/30 08:23:18;;;;;;;5.60;5.10;;;;;;;13.61;74.58;95005.19;5031534;28;20226;-85
2022/09/30 08:25:46;;;;;;;5.70;5.20;;;;;;;14.16;71.36;95002.78;5031533;28;20670;-83
2022/09/30 08:28:13;;;;;;;16.60;10.07;;;;;;;14.45;71.16;95001.31;5031750;28;20190;-83
2022/09/30 08:30:40;;;;;;;5.60;5.10;;;;;;;14.57;69.48;95002.22;5031506;28;20729;-80
2022/09/30 08:33:07;;;;;;;4.00;3.70;;;;;;;14.45;65.78;94998.72;5031442;28;20773;-81
2022/09/30 08:35:34;;;;;;;4.07;3.73;;;;;;;14.64;66.39;95002.13;5027634;28;20661;-84
2022/09/30 08:38:01;;;;;;;3.77;2.70;;;;;;;14.88;63.66;95010.84;5023078;28;20214;-83
2022/09/30 08:40:31;;;;;;;3.00;2.80;;;;;;;15.05;62.72;95017.00;5030062;28;20202;-84
2022/09/30 08:43:22;;;;;;;3.28;3.00;;;;;;;15.11;62.61;95006.56;5031365;28;20210;-85
2022/09/30 08:46:01;;;;;;;3.10;2.90;;;;;;;15.05;65.74;95027.38;5029878;28;20202;-84
2022/09/30 08:48:42;;;;;;;5.95;3.97;;;;;;;14.81;67.84;95018.72;5030468;28;20198;-82
2022/09/30 08:51:23;;;;;;;6.43;4.75;;;;;;;14.70;68.89;95022.00;5030282;28;20209;-82
2022/09/30 08:53:51;;;;;;;4.47;4.07;;;;;;;14.65;68.88;95022.63;5029654;28;20272;-84
2022/09/30 08:56:22;;;;;;;4.93;4.10;;;;;;;14.59;68.22;95022.72;5027311;28;20217;-84
2022/09/30 08:58:53;;;;;;;5.22;4.57;;;;;;;14.13;67.60;95024.69;5030725;28;20229;-84
2022/09/30 09:01:26;;;;;;;6.50;4.43;;;;;;;14.05;69.25;95026.75;5013287;28;20659;-84
2022/09/30 09:03:53;;;;;;;6.88;4.57;;;;;;;13.94;71.13;95028.22;5012859;28;20229;-84
2022/09/30 09:06:26;;;;;;;4.45;4.07;;;;;;;13.93;71.95;95036.19;5028758;28;20221;-82
2022/09/30 09:09:11;;;;;;;4.75;3.33;;;;;;;13.82;70.20;95033.31;5024032;28;20218;-84
2022/09/30 09:11:53;;;;;;;3.27;2.97;;;;;;;13.82;71.12;95041.06;5014157;28;20194;-82
2022/09/30 09:14:47;;;;;;;3.73;3.43;;;;;;;13.72;69.65;95051.06;5027905;28;20226;-82
2022/09/30 09:17:25;;;;;;;3.37;3.10;;;;;;;13.60;72.53;95060.50;5027729;28;20261;-84
2022/09/30 09:20:00;;;;;;;2.60;2.40;;;;;;;13.56;72.42;95061.13;5028314;28;20241;-84
2022/09/30 09:22:36;;;;;;;2.60;2.40;;;;;;;13.55;73.17;95056.94;5030113;28;20193;-85
2022/09/30 09:25:06;;;;;;;2.50;2.30;;;;;;;13.53;73.54;95067.50;5027681;28;20233;-85
2022/09/30 09:27:46;;;;;;;3.37;2.33;;;;;;;13.48;73.82;95068.09;5017362;28;20203;-84
2022/09/30 09:30:23;;;;;;;5.13;2.23;;;;;;;13.40;74.48;95070.16;5024637;28;20308;-85
2022/09/30 09:32:57;;;;;;;2.30;2.10;;;;;;;13.25;73.12;95064.47;5026574;28;20190;-84
2022/09/30 09:35:37;;;;;;;1.80;1.70;;;;;;;13.08;72.05;95064.88;5029878;28;20228;-82
2022/09/30 09:38:25;;;;;;;3.73;2.00;;;;;;;13.08;71.96;95064.09;5028379;28;20217;-82
2022/09/30 09:41:06;;;;;;;2.57;1.70;;;;;;;13.06;73.67;95064.31;5031323;28;20285;-84
2022/09/30 09:43:48;;;;;;;2.27;1.90;;;;;;;13.06;75.94;95064.31;5029482;28;20218;-82
2022/09/30 09:46:24;;;;;;;1.93;1.80;;;;;;;12.99;72.82;95062.72;5031960;28;20221;-85
2022/09/30 09:49:10;;;;;;;1.70;1.60;;;;;;;12.96;72.26;95068.28;5031555;28;20194;-84
2022/09/30 09:51:45;;;;;;;1.60;1.50;;;;;;;12.89;73.36;95063.16;5022319;28;20206;-82
2022/09/30 09:54:14;;;;;;;1.60;1.40;;;;;;;12.89;73.30;95058.00;5033896;28;20275;-84
2022/09/30 09:56:40;;;;;;;1.77;1.67;;;;;;;12.95;74.55;95058.97;5033155;28;20198;-85
2022/09/30 09:59:12;;;;;;;2.50;1.50;;;;;;;13.01;74.65;95053.78;5031439;28;20220;-84
2022/09/30 10:01:42;;;;;;;2.20;1.63;;;;;;;13.01;72.90;95051.19;5029372;28;20205;-85
2022/09/30 10:04:16;;;;;;;2.20;2.00;;;;;;;12.98;71.83;95055.97;5031862;28;20218;-83
2022/09/30 10:06:47;;;;;;;1.80;1.50;;;;;;;12.96;73.60;95063.94;5030584;28;20858;-85
2022/09/30 10:09:33;;;;;;;1.77;1.67;;;;;;;12.99;73.82;95066.09;5030156;28;20198;-84
2022/09/30 10:12:26;;;;;;;2.27;1.97;;;;;;;12.97;72.78;95072.47;5031996;28;20692;-83
2022/09/30 10:14:58;;;;;;;4.10;3.07;;;;;;;13.12;73.94;95073.81;5033202;28;20234;-84
2022/09/30 10:17:29;;;;;;;2.10;1.90;;;;;;;13.28;73.50;95075.16;5035642;28;20206;-83
2022/09/30 10:20:00;;;;;;;2.50;1.87;;;;;;;13.35;72.21;95083.69;5035226;28;20654;-84
2022/09/30 10:22:32;;;;;;;2.40;1.70;;;;;;;13.61;72.59;95080.19;5036140;28;20585;-84
2022/09/30 10:25:15;;;;;;;1.87;1.77;;;;;;;13.79;72.46;95075.13;5035756;28;20691;-84
2022/09/30 10:27:49;;;;;;;4.57;1.30;;;;;;;13.99;71.51;95080.16;5035703;28;20208;-84
2022/09/30 10:30:31;;;;;;;1.50;1.40;;;;;;;13.83;68.49;95072.91;5034389;28;20201;-82
2022/09/30 10:33:02;;;;;;;2.17;1.40;;;;;;;13.92;69.72;95066.47;5032756;28;20209;-84
2022/09/30 10:35:29;;;;;;;1.38;1.27;;;;;;;13.78;69.37;95067.56;5033745;28;20688;-83
2022/09/30 10:37:59;;;;;;;1.42;1.30;;;;;;;13.73;70.42;95081.13;5034476;28;20217;-82
2022/09/30 10:40:28;;;;;;;1.63;1.53;;;;;;;13.72;72.80;95084.69;5033359;28;20260;-81
2022/09/30 10:42:55;;;;;;;1.53;1.43;;;;;;;13.78;72.50;95072.72;5032483;28;20209;-81
2022/09/30 10:45:24;;;;;;;1.33;1.23;;;;;;;13.74;70.69;95082.69;5031887;28;20241;-83
2022/09/30 10:47:54;;;;;;;3.90;1.30;;;;;;;13.60;70.90;95088.16;5025227;28;20214;-81
2022/09/30 10:50:26;;;;;;;1.20;1.10;;;;;;;13.60;71.41;95080.41;5033926;28;20218;-83
2022/09/30 10:52:56;;;;;;;2.58;1.10;;;;;;;13.64;72.38;95079.78;5034206;28;20201;-81
2022/09/30 10:55:33;;;;;;;1.23;1.13;;;;;;;13.64;71.71;95091.94;5034906;28;20210;-83
2022/09/30 10:58:21;;;;;;;1.63;1.27;;;;;;;13.65;70.62;95090.94;5019412;28;20225;-84
2022/09/30 11:00:50;;;;;;;1.50;1.40;;;;;;;13.69;70.24;95089.50;5020889;28;20209;-81
2022/09/30 11:03:20;;;;;;;3.10;2.80;;;;;;;13.68;70.31;95093.88;4953942;29;20263;-81
2022/09/30 11:05:49;;;;;;;8.55;7.47;;;;;;;13.61;70.88;95098.31;4967565;28;20215;-82
2022/09/30 11:08:22;;;;;;;1.27;1.17;;;;;;;13.54;70.87;95091.56;4972716;28;20684;-81
2022/09/30 11:10:57;;;;;;;2.38;1.50;;;;;;;13.53;70.93;95090.78;4974545;28;20196;-83
2022/09/30 11:13:31;;;;;;;1.17;1.10;;;;;;;13.46;69.86;95095.19;4985701;28;20226;-82
2022/09/30 11:16:11;;;;;;;1.20;1.10;;;;;;;13.51;70.48;95103.13;4992880;28;20196;-83
2022/09/30 11:18:43;;;;;;;2.40;1.60;;;;;;;13.52;71.89;95109.88;4992078;28;20222;-82
2022/09/30 11:21:18;;;;;;;1.88;1.73;;;;;;;13.57;73.01;95122.19;4988482;28;20203;-84
2022/09/30 11:23:48;;;;;;;1.60;1.50;;;;;;;13.54;71.74;95113.06;4989359;28;20215;-84
2022/09/30 11:26:26;;;;;;;1.30;1.20;;;;;;;13.43;72.34;95122.25;4991983;28;20192;-83
2022/09/30 11:29:09;;;;;;;1.27;1.10;;;;;;;13.41;71.09;95124.25;4987750;28;20682;-84
2022/09/30 11:31:41;;;;;;;1.70;1.20;;;;;;;13.34;70.98;95126.06;4988887;28;20211;-83
2022/09/30 11:34:24;;;;;;;1.87;1.40;;;;;;;13.36;71.55;95129.25;4992687;28;20216;-84
2022/09/30 11:37:02;;;;;;;1.20;1.10;;;;;;;13.42;71.76;95125.06;4990354;28;20207;-84
2022/09/30 11:39:55;;;;;;;1.50;1.40;;;;;;;13.36;71.84;95125.88;4992384;28;20699;-84
2022/09/30 11:42:30;;;;;;;1.60;1.50;;;;;;;13.35;72.37;95116.50;4984175;28;20202;-84
2022/09/30 11:45:12;;;;;;;1.52;1.35;;;;;;;13.38;73.28;95111.72;4989607;28;20219;-84
2022/09/30 11:47:56;;;;;;;1.90;1.40;;;;;;;13.42;73.38;95114.72;4987691;28;20564;-85